Solana Beach, California
Current Conditions -  °F | °C
As of 4:55 PM on Monday 20 Oct 2014 (Local Time) from KNKX Reporting Station
Scattered Clouds Scattered Clouds  
Wind Chill: 70°   Ceiling: Unl
Heat Index: 70°   Visibility: 10mi
Dew Point: 59°   Wind: 12mph
Humidity: 68%   Direction: 300°WNW
Pressure: 29.88"   Gusts: NA
Location:  32.98°N, 117.27°W
Report Text: KNKX 202355Z 30010KT 10SM SCT017 21/15 A2988 RMK AO2 SLP112 T02110150 10239 20211 56006
Loading
Personal Weather Stations






























Interactive Weather Map New forecast layout! Learn more

10-Day Weather Forecast

Advertisements
Track Severe Weather on mobile